Howard Lake, Minnesota
Current Conditions -  °F | °C
As of 4:16 AM on Saturday 20 Dec 2014 (Local Time) from KMGG Reporting Station
Haze Haze  
Wind Chill: 26°   Ceiling: 600
Heat Index: 31°   Visibility: 3mi
Dew Point: 31°   Wind: 6mph
Humidity: 97%   Direction: 150°SSE
Pressure: 30.13"   Gusts: NA
Location:  45.06°N, 94.07°W
Report Text: KMGG 201016Z AUTO 15005KT 3SM BR OVC006 00/M01 A3013 RMK AO2 T10031007
Loading
Personal Weather Stations






























Interactive Weather Map New forecast layout! Learn more

10-Day Weather Forecast

Advertisements
Track Severe Weather on mobile